AirNav   Pilot Hours Calculator
 
 771 users online  

55G Arnold Field Airport
Croswell, Michigan, USA

GOING TO CROSWELL?


FAA INFORMATION EFFECTIVE 07 NOVEMBER 2019

Location

FAA Identifier: 55G
Lat/Long: 43-17-52.0800N 082-36-28.3100W
43-17.868000N 082-36.471833W
43.2978000,-82.6078639
(estimated)
Elevation: 784 ft. / 239 m (estimated)
Variation: 07W (1985)
From city: 2 miles NE of CROSWELL, MI
Time zone: UTC -5 (UTC -4 during Daylight Saving Time)
Zip code: 48422

Airport Operations

Airport use: Open to the public
Activation date: 05/1968
Control tower: no
ARTCC: CLEVELAND CENTER
FSS: LANSING FLIGHT SERVICE STATION
NOTAMs facility: LAN (NOTAM-D service available)
Attendance: UNATNDD
Wind indicator: yes
Segmented circle: no

Airport Communications

CTAF/UNICOM: 122.8

Airport Services

Parking: tiedowns
Bottled oxygen: NONE
Bulk oxygen: NONE

Runway Information

Runway 18/36

Dimensions: 2570 x 140 ft. / 783 x 43 m
Surface: turf, in good condition
Runway edge markings: RWY AND DSPLCD THLD MARKED WITH 3' YELLOW CONES.
RUNWAY 18  RUNWAY 36
Latitude: 43-18.080000N43-17.657500N
Longitude: 082-36.486667W082-36.457000W
Elevation: 784.0 ft.780.0 ft.
Traffic pattern: leftleft
Runway heading: 184 magnetic, 177 true004 magnetic, 357 true
Displaced threshold: 600 ft.570 ft.
Runway end identifier lights: nono
Obstructions: 76 ft. trees, 1250 ft. from runway, 16:1 slope to clear
APCH RATIO 24:1 AT DSPLCD THLD.
29 ft. pline, lighted, 11 ft. from runway, 97 ft. left of centerline
APCH RATIO AT DSPLCD THLD 20:1; DSPLCD THLD 5 FT ABOVE END OF RY.

Airport Ownership and Management from official FAA records

Ownership: Privately-owned
Owner: KENNETH LANDSBURG
4343 CROSWELL RD
CROSWELL, MI 48422
Phone 810-679-2487
Manager: BART PERRY
4343 CROSWELL ROAD
CROSWELL, MI 48422
Phone (810) 304-1018

Airport Operational Statistics

Aircraft based on the field: 6
Single engine airplanes: 4
Ultralights: 2
    
Aircraft operations: 200/year *
50% transient general aviation
50% local general aviation
* for 12-month period ending 31 December 2019

Additional Remarks

ARPT CLSD NOV-MAR. WINTER OPNS SKIS ONLY.
FOR CD CTC CLEVELAND ARTCC AT 440-774-0224.
BIRDS AND DEER INVOF RWY.

Instrument Procedures

There are no published instrument procedures at 55G.

Some nearby airports with instrument procedures:

77G - Marlette Township Airport (21 nm W)
KPHN - St Clair County International Airport (23 nm S)
D95 - Dupont-Lapeer Airport (32 nm SW)
KBAX - Huron County Memorial Airport (33 nm NW)
D98 - Romeo State Airport (34 nm SW)
 
Loc | Ops | Rwys | IFR | FBO | Links
Com | Nav | Svcs | Stats | Notes
Area around 55G (Arnold Field Airport)
 
Road maps at: MapQuest Bing Google
 
Aerial photo
No photo
 
Sectional chart

 
Airport distance calculator
Flying to Arnold Field Airport? Find the distance to fly.

From to 55G

Sunrise and sunset
Times for 12-Nov-2019
 Local
(UTC-5)
 Zulu
(UTC)
Morning civil twilight06:5011:50
Sunrise07:2112:21
Sunset17:0822:08
Evening civil twilight17:3922:39

Current date and time
Zulu (UTC)  13-Nov-2019 03:14:31
Local (UTC-5)  12-Nov-2019 22:14:31
 
METAR
CYZR 
22nm SE 
130200Z AUTO 28007KT 9SM CLR M08/M12 A3032 RMK RVR MISG SLP279
KPHN 
23nm S 
130255Z AUTO 23003KT 10SM CLR M10/M13 A3033 RMK AO2
KD95 
32nm SW 
130256Z AUTO 27004KT 10SM CLR M09/M13 A3033 RMK AO2 T10941132
KBAX 
33nm NW 
130256Z AUTO 25005KT 10SM CLR M11/M14 A3030 RMK AO2 T11061138
KCFS 
38nm W 
130255Z AUTO 00000KT 10SM CLR M13/M17 A3033 RMK AO2 T11341174
KMTC 
42nm S 
130256Z 27006KT 12SM FEW050 M09/M13 A3033 RMK SLP284 WND DATA ESTMD ALSTG/SLP ESTMD 52010
KP58 
44nm N 
130251Z AUTO 29009KT M06/M13 A3027 RMK AO1 SLP266 T10561128 51005
TAF
CYZR 
22nm SE 
121938Z 1220/1303 30010G20KT P6SM SCT030 FM122300 29012KT P6SM SCT030 TEMPO 1223/1303 BKN020 RMK FCST BASED ON AUTO OBS. NXT FCST WILL BE ISSUED AT 130845Z
NOTAMs
Click for the latest NOTAMs
NOTAMs are issued by the DoD/FAA and will open in a separate window not controlled by AirNav.

 

 
 

Would you like to see your business listed on this page?

 If your business provides an interesting product or service to pilots, flight crews, aircraft, or users of the Arnold Field Airport, you should consider listing it here.  To start the listing process, click on the button below
 
Add a business
 

Other Pages about Arnold Field Airport

Page from the Michigan Airport Directory (PDF)
 
Update a link
 
Copyright © AirNav, LLC. All rights reserved. Privacy Policy  Contact